Flight Track Log - Related Links

Times and Time Zones

All times are in EDT time to prevent confusion due to time zone crossing. See the DAL2191 flight status page for this flight to view local times or setup timezone preferences in your user account.

Time Position Orientation Groundspeed Altitude Reporting Facility
EDT Latitude Longitude Course Direction KTS MPH feet Rate Location/Type
Sun 12:51:54 PM 33.6347 -84.4831 199° South 457 526 2,500  Level Atlanta Center
Sun 12:52:54 PM 33.6344 -84.5653 270° West 375 432 4,700 2,450 Climbing Atlanta Center
Sun 12:53:54 PM 33.5675 -84.5947 200° South 289 333 7,400 2,650 Climbing Atlanta Center
Sun 12:54:00 PM 33.3380 -84.2994 194° South  Level FlightAware Approximate
Sun 12:54:54 PM 33.4822 -84.5742 169° South 314 361 10,000  Level Atlanta Center
Sun 12:55:00 PM 33.2087 -84.3372 194° South  Level FlightAware Approximate
Sun 12:55:54 PM 33.3778 -84.5464 167° South 382 440 11,400  Level Atlanta Center
Sun 12:56:00 PM 33.0793 -84.3748 194° South  Level FlightAware Approximate
Sun 12:56:54 PM 33.2819 -84.5183 166° South 403 464 13,700  Level Atlanta Center
Sun 12:57:00 PM 32.9516 -84.4160 199° South  Level FlightAware Approximate
Sun 12:57:54 PM 33.1714 -84.4881 167° South 403 464 16,000  Level Atlanta Center
Sun 12:58:54 PM 33.0589 -84.4553 166° South 414 476 17,900 1,900 Climbing Atlanta Center
Sun 12:59:54 PM 32.9400 -84.4300 170° South 422 486 19,800 1,750 Climbing Atlanta Center
Sun 01:00:54 PM 32.8083 -84.4244 178° South 428 493 21,400 1,500 Climbing Atlanta Center
Sun 01:01:54 PM 32.6958 -84.4189 178° South 440 506 22,800 1,350 Climbing Atlanta Center
Sun 01:02:54 PM 32.5683 -84.4158 179° South 447 514 24,100 1,100 Climbing Atlanta Center
Sun 01:03:54 PM 32.4347 -84.4128 179° South 466 536 25,000 450 Climbing Atlanta Center
Sun 01:04:54 PM 32.3014 -84.4100 179° South 478 550 25,000 950 Level Atlanta Center
Sun 01:05:54 PM 32.1697 -84.4069 179° South 478 550 26,900 1,600 Climbing Atlanta Center
Sun 01:06:54 PM 32.0403 -84.4039 179° South 473 544 28,200 857 Climbing Atlanta Center
Sun 01:08:21 PM 31.8256 -84.4014 179° South 470 541 29,000 327 Climbing Jacksonville Center
Sun 01:09:21 PM 31.6878 -84.3967 178° South 482 555 29,000  Level Jacksonville Center
Sun 01:10:21 PM 31.5525 -84.3772 173° South 493 567 29,000  Level Jacksonville Center
Sun 01:11:21 PM 31.4192 -84.3411 167° South 498 573 29,000 -250 Level Jacksonville Center
Sun 01:12:21 PM 31.2839 -84.3000 165° South 503 579 28,500 -750 Descending Jacksonville Center
Sun 01:13:21 PM 31.1528 -84.2642 167° South 503 579 27,500 -750 Descending Jacksonville Center
Sun 01:14:21 PM 31.0217 -84.2283 167° South 487 560 27,000 -250 Descending Jacksonville Center
Sun 01:15:21 PM 30.8947 -84.1903 166° South 487 560 27,000  Level Jacksonville Center
Sun 01:16:21 PM 30.7656 -84.1547 167° South 487 560 27,000  Level Jacksonville Center
Sun 01:17:21 PM 30.6322 -84.1167 166° South 487 560 27,000  Level Jacksonville Center
Sun 01:18:21 PM 30.5053 -84.0836 167° South 487 560 27,000  Level Jacksonville Center
Sun 01:19:21 PM 30.3700 -84.0458 166° South 487 560 27,000 -50 Level Jacksonville Center
Sun 01:20:21 PM 30.2386 -84.0106 167° South 487 560 26,900  Descending Jacksonville Center
Sun 01:21:21 PM 30.1136 -83.9756 166° South 482 555 27,000 50 Climbing Jacksonville Center
Sun 01:22:21 PM 29.9886 -83.9406 166° South 471 542 27,000  Level Jacksonville Center
Sun 01:23:22 PM 29.8617 -83.9081 167° South 466 536 27,000  Level Jacksonville Center
Sun 01:24:21 PM 29.7453 -83.8494 156° South 466 536 27,000  Level Jacksonville Center
Sun 01:25:21 PM 29.6331 -83.7767 151° Southeast 461 531 27,000 -100 Level Jacksonville Center
Sun 01:26:21 PM 29.5247 -83.7064 151° Southeast 456 525 26,800 -550 Descending Jacksonville Center
Sun 01:27:21 PM 29.4250 -83.6411 150° Southeast 456 525 25,900 -1,000 Descending Jacksonville Center
Sun 01:28:21 PM 29.3189 -83.5739 151° Southeast 451 519 24,800 -950 Descending Jacksonville Center
Sun 01:29:21 PM 29.2150 -83.5042 150° Southeast 445 512 24,000 -450 Descending Jacksonville Center
Sun 01:30:21 PM 29.1131 -83.4392 151° Southeast 433 498 23,900 -200 Descending Jacksonville Center
Sun 01:31:21 PM 29.0131 -83.3769 151° Southeast 426 490 23,600 -1,150 Descending Jacksonville Center
Sun 01:32:21 PM 28.9111 -83.3100 150° Southeast 421 484 21,600 -2,000 Descending Jacksonville Center
Sun 01:33:21 PM 28.8153 -83.2481 150° Southeast 410 472 19,600 -2,000 Descending Jacksonville Center
Sun 01:34:21 PM 28.7192 -83.1908 152° Southeast 398 458 17,600 -1,900 Descending Jacksonville Center
Sun 01:35:21 PM 28.6317 -83.1361 151° Southeast 383 441 15,800 -1,739 Descending Jacksonville Center
Sun 01:36:39 PM 28.5000 -83.0500 150° Southeast 360 414 13,600 -1,391 Descending Tampa TRACON
Sun 01:37:39 PM 28.4167 -83.0000 152° Southeast 346 398 12,600 -1,250 Descending Tampa TRACON
Sun 01:38:39 PM 28.3500 -82.9500 147° Southeast 314 361 11,100 -1,850 Descending Tampa TRACON
Sun 01:39:39 PM 28.2833 -82.9000 147° Southeast 299 344 8,900 -2,048 Descending Tampa TRACON
Sun 01:40:45 PM 28.2667 -82.8000 101° East 287 330 6,800 -1,476 Descending Tampa TRACON
Sun 01:41:45 PM 28.2333 -82.7333 120° Southeast 281 323 5,800 -1,400 Descending Tampa TRACON
Sun 01:42:45 PM 28.2000 -82.6500 114° Southeast 277 319 4,000 -1,300 Descending Tampa TRACON
Sun 01:43:45 PM 28.1833 -82.5833 106° East 234 269 3,200 -550 Descending Tampa TRACON
Sun 01:44:45 PM 28.1333 -82.5333 139° Southeast 201 231 2,900 -700 Descending Tampa TRACON
Sun 01:45:45 PM 28.0833 -82.5333 180° South 189 217 1,800 -947 Descending Tampa TRACON
Sun 01:46:39 PM 28.0500 -82.5333 180° South 158 182 1,100 -737 Descending Tampa TRACON
Sun 01:47:39 PM 28.0000 -82.5333 180° South 144 166 400 -700 Descending Tampa TRACON

Login

Don't have an account? Register now (free) for customized features, flight alerts, and more!